Time;durP1;ratioP1;P1;durP2;ratioP2;P2;SDS_P1;SDS_P2;PMS_P1;PMS_P2;Temp;Humidity;BMP_temperature;BMP_pressure;BME280_temperature;BME280_humidity;BME280_pressure;Samples;Min_cycle;Max_cycle;Signal;HPM_P1;HPM_P2
2022/03/13 00:00:28;;;;;;;;;;;0.70;78.70;;;;;;5094143;28;19908;-87
2022/03/13 00:02:55;;;;;;;;;;;0.60;78.00;;;;;;5094314;28;19930;-86
2022/03/13 00:05:21;;;;;;;;;;;0.50;78.40;;;;;;5094328;28;19992;-86
2022/03/13 00:07:47;;;;;;;;;;;0.50;79.40;;;;;;5093957;28;19952;-86
2022/03/13 00:10:16;;;;;;;;;;;0.50;79.90;;;;;;5092620;28;19947;-86
2022/03/13 00:12:41;;;;;;;;;;;0.50;79.70;;;;;;5094211;28;19915;-86
2022/03/13 00:15:12;;;;;;;;;;;0.60;79.70;;;;;;5093876;28;20011;-87
2022/03/13 00:17:37;;;;;;;;;;;0.50;79.60;;;;;;5093799;28;19908;-87
2022/03/13 00:20:04;;;;;;;;;;;0.40;79.60;;;;;;5093591;28;19912;-87
2022/03/13 00:22:30;;;;;;;;;;;0.20;80.10;;;;;;5093740;28;19957;-87
2022/03/13 00:24:56;;;;;;;;;;;0.10;80.60;;;;;;5093752;28;19915;-87
2022/03/13 00:27:21;;;;;;;;;;;0.10;80.60;;;;;;5093695;28;19909;-87
2022/03/13 00:29:48;;;;;;;;;;;0.10;81.10;;;;;;5093481;28;19908;-87
2022/03/13 00:32:13;;;;;;;;;;;0.20;81.00;;;;;;5093603;28;19916;-87
2022/03/13 00:34:39;;;;;;;;;;;0.20;81.10;;;;;;5093542;28;19908;-87
2022/03/13 00:37:04;;;;;;;;;;;0.30;80.70;;;;;;5093521;28;19912;-87
2022/03/13 00:39:30;;;;;;;;;;;0.30;80.20;;;;;;5093379;28;19912;-87
2022/03/13 00:41:55;;;;;;;;;;;0.30;80.10;;;;;;5093710;28;19908;-87
2022/03/13 00:44:21;;;;;;;;;;;0.40;79.90;;;;;;5093417;28;19954;-87
2022/03/13 00:46:46;;;;;;;;;;;0.40;79.10;;;;;;5093379;28;19951;-86
2022/03/13 00:49:12;;;;;;;;;;;0.50;78.70;;;;;;5093341;28;19908;-87
2022/03/13 00:51:38;;;;;;;;;;;0.50;78.00;;;;;;5093308;28;20324;-86
2022/03/13 00:54:04;;;;;;;;;;;0.50;78.00;;;;;;5093106;28;19908;-86
2022/03/13 00:56:29;;;;;;;;;;;0.50;77.50;;;;;;5093508;28;19981;-86
2022/03/13 00:58:55;;;;;;;;;;;0.60;76.60;;;;;;5092949;28;20015;-87
2022/03/13 01:01:20;;;;;;;;;;;0.50;76.00;;;;;;5093245;28;19958;-87
2022/03/13 01:03:48;;;;;;;;;;;0.40;76.00;;;;;;5093211;28;19957;-86
2022/03/13 01:06:14;;;;;;;;;;;0.20;76.90;;;;;;5093193;28;20427;-86
2022/03/13 01:08:40;;;;;;;;;;;0.10;77.30;;;;;;5093143;28;19908;-87
2022/03/13 01:11:06;;;;;;;;;;;0.00;77.60;;;;;;5093410;28;19916;-86
2022/03/13 01:13:32;;;;;;;;;;;0.00;78.20;;;;;;5093133;28;19919;-86
2022/03/13 01:16:11;;;;;;;;;;;-3276.70;79.50;;;;;;5093068;28;19912;-86
2022/03/13 01:18:42;;;;;;;;;;;-3276.60;79.00;;;;;;5091698;28;19912;-86
2022/03/13 01:21:08;;;;;;;;;;;-3276.50;79.40;;;;;;5093099;28;19908;-86
2022/03/13 01:23:34;;;;;;;;;;;-3276.50;79.60;;;;;;5093003;28;19916;-87
2022/03/13 01:26:18;;;;;;;;;;;-3276.50;77.70;;;;;;5092973;28;20285;-86
2022/03/13 01:28:43;;;;;;;;;;;-3276.50;77.10;;;;;;5093281;28;19908;-87
2022/03/13 01:31:09;;;;;;;;;;;-3276.40;78.10;;;;;;5092876;28;19930;-87
2022/03/13 01:33:34;;;;;;;;;;;-3276.40;78.00;;;;;;5092926;28;19981;-86
2022/03/13 01:36:00;;;;;;;;;;;-3276.40;75.70;;;;;;5092945;28;20306;-87
2022/03/13 01:38:31;;;;;;;;;;;-3276.40;73.40;;;;;;5092792;28;19935;-86
2022/03/13 01:40:57;;;;;;;;;;;-3276.40;73.00;;;;;;5092849;28;19908;-86
2022/03/13 01:43:22;;;;;;;;;;;-3276.40;75.90;;;;;;5092853;28;20387;-87
2022/03/13 01:45:48;;;;;;;;;;;-3276.40;78.00;;;;;;5092827;28;19958;-86
2022/03/13 01:48:13;;;;;;;;;;;-3276.40;78.30;;;;;;5092772;28;20385;-87
2022/03/13 01:50:39;;;;;;;;;;;-3276.40;75.10;;;;;;5092728;28;20415;-87
2022/03/13 01:53:04;;;;;;;;;;;0.00;73.10;;;;;;5092883;28;19933;-86
2022/03/13 01:55:30;;;;;;;;;;;0.20;71.30;;;;;;5092745;28;19912;-86
2022/03/13 01:57:55;;;;;;;;;;;0.30;71.30;;;;;;5092658;28;19946;-86
2022/03/13 02:00:21;;;;;;;;;;;0.40;72.30;;;;;;5092640;28;20006;-86
2022/03/13 02:02:47;;;;;;;;;;;0.50;72.70;;;;;;5092647;28;19908;-86
2022/03/13 02:05:22;;;;;;;;;;;0.60;72.30;;;;;;5092655;28;19914;-87
2022/03/13 02:07:47;;;;;;;;;;;0.60;71.00;;;;;;5096332;28;19908;-86
2022/03/13 02:10:14;;;;;;;;;;;0.50;69.80;;;;;;5096237;28;19969;-86
2022/03/13 02:12:40;;;;;;;;;;;0.30;70.40;;;;;;5096258;28;19915;-87
2022/03/13 02:15:05;;;;;;;;;;;0.20;71.80;;;;;;5096164;28;19935;-87
2022/03/13 02:17:34;;;;;;;;;;;0.10;71.90;;;;;;5096387;28;20357;-87
2022/03/13 02:20:00;;;;;;;;;;;0.10;71.80;;;;;;5096011;28;19912;-86
2022/03/13 02:22:26;;;;;;;;;;;0.20;71.70;;;;;;5096620;28;19912;-86
2022/03/13 02:24:52;;;;;;;;;;;0.30;70.90;;;;;;5096020;28;19914;-87
2022/03/13 02:27:21;;;;;;;;;;;0.30;70.60;;;;;;5095955;28;19908;-86
2022/03/13 02:29:47;;;;;;;;;;;0.30;70.10;;;;;;5095810;28;20377;-87
2022/03/13 02:32:13;;;;;;;;;;;0.40;69.50;;;;;;5095827;28;19908;-87
2022/03/13 02:34:39;;;;;;;;;;;0.40;68.90;;;;;;5095777;28;20304;-87
2022/03/13 02:37:04;;;;;;;;;;;0.30;69.20;;;;;;5095859;28;20324;-86
2022/03/13 02:39:35;;;;;;;;;;;0.40;69.80;;;;;;5095654;28;19958;-86
2022/03/13 02:42:01;;;;;;;;;;;0.20;70.40;;;;;;5095672;28;19961;-86
2022/03/13 02:44:27;;;;;;;;;;;0.00;71.00;;;;;;5095601;28;20452;-87
2022/03/13 02:46:54;;;;;;;;;;;0.00;71.90;;;;;;5095591;28;19915;-87
2022/03/13 02:49:21;;;;;;;;;;;0.00;72.60;;;;;;5095539;28;19908;-86
2022/03/13 02:51:49;;;;;;;;;;;0.00;72.90;;;;;;5095542;28;19998;-86
2022/03/13 02:54:15;;;;;;;;;;;0.00;72.60;;;;;;5095462;28;19908;-87
2022/03/13 02:56:45;;;;;;;;;;;-3276.60;73.60;;;;;;5095417;28;19933;-86
2022/03/13 02:59:12;;;;;;;;;;;-3276.50;73.50;;;;;;5094964;28;19946;-86
2022/03/13 03:01:38;;;;;;;;;;;-3276.60;73.70;;;;;;5095276;28;19912;-86
2022/03/13 03:04:04;;;;;;;;;;;0.00;73.10;;;;;;5095306;28;20440;-86
2022/03/13 03:06:30;;;;;;;;;;;-3276.70;72.50;;;;;;5095453;28;20009;-86
2022/03/13 03:08:56;;;;;;;;;;;-3276.60;73.00;;;;;;5095066;28;20014;-87
2022/03/13 03:11:22;;;;;;;;;;;-3276.70;73.40;;;;;;5095095;28;19977;-86
2022/03/13 03:13:47;;;;;;;;;;;0.00;72.40;;;;;;5095078;28;19961;-86
2022/03/13 03:16:13;;;;;;;;;;;0.00;71.60;;;;;;5095032;28;19908;-86
2022/03/13 03:18:39;;;;;;;;;;;0.10;71.30;;;;;;5094938;28;20373;-87
2022/03/13 03:21:04;;;;;;;;;;;-3276.70;70.40;;;;;;5093587;28;19915;-86
2022/03/13 03:23:30;;;;;;;;;;;-3276.30;71.80;;;;;;5094833;28;19908;-86
2022/03/13 03:25:55;;;;;;;;;;;-3276.00;73.20;;;;;;5094821;28;20277;-86
2022/03/13 03:28:22;;;;;;;;;;;-3276.10;74.80;;;;;;5094806;28;19978;-87
2022/03/13 03:30:48;;;;;;;;;;;-3276.30;74.90;;;;;;5094655;28;19931;-86
2022/03/13 03:33:13;;;;;;;;;;;-3276.40;74.60;;;;;;5094706;28;20293;-86
2022/03/13 03:35:39;;;;;;;;;;;-3276.40;74.20;;;;;;5094667;28;19908;-86
2022/03/13 03:38:04;;;;;;;;;;;-3276.30;74.30;;;;;;5094496;28;20045;-86
2022/03/13 03:40:31;;;;;;;;;;;-3276.30;74.60;;;;;;5094499;28;19969;-86
2022/03/13 03:43:01;;;;;;;;;;;-3276.20;74.10;;;;;;5094506;28;20392;-86
2022/03/13 03:45:26;;;;;;;;;;;-3276.20;73.40;;;;;;5094476;28;19908;-86
2022/03/13 03:47:52;;;;;;;;;;;-3276.20;73.60;;;;;;5094425;28;19915;-86
2022/03/13 03:50:18;;;;;;;;;;;-3276.30;73.80;;;;;;5094342;28;20053;-86
2022/03/13 03:52:45;;;;;;;;;;;-3276.10;73.80;;;;;;5094387;28;19998;-86
2022/03/13 03:55:11;;;;;;;;;;;-3275.90;73.80;;;;;;5093001;28;19908;-86
2022/03/13 03:57:36;;;;;;;;;;;-3275.90;74.20;;;;;;5094114;28;19943;-87
2022/03/13 04:00:03;;;;;;;;;;;-3276.00;74.30;;;;;;5094101;28;19967;-86
2022/03/13 04:02:28;;;;;;;;;;;-3276.10;74.20;;;;;;5094089;28;19908;-86
2022/03/13 04:04:54;;;;;;;;;;;-3276.10;74.20;;;;;;5094064;28;19908;-86
2022/03/13 04:07:19;;;;;;;;;;;-3276.00;73.80;;;;;;5094011;28;19908;-86
2022/03/13 04:09:45;;;;;;;;;;;-3276.10;74.10;;;;;;5093937;28;19912;-87
2022/03/13 04:12:11;;;;;;;;;;;-3276.10;73.80;;;;;;5094004;28;19908;-86
2022/03/13 04:14:37;;;;;;;;;;;-3276.10;73.30;;;;;;5094170;28;19948;-86
2022/03/13 04:17:05;;;;;;;;;;;-3276.10;73.10;;;;;;5093898;28;19908;-86
2022/03/13 04:19:30;;;;;;;;;;;-3275.90;72.90;;;;;;5094040;28;19995;-87
2022/03/13 04:21:56;;;;;;;;;;;-3275.80;73.20;;;;;;5093794;28;19951;-87
2022/03/13 04:24:22;;;;;;;;;;;-3275.70;73.90;;;;;;5093802;28;19915;-86
2022/03/13 04:26:49;;;;;;;;;;;-3275.80;74.90;;;;;;5093672;28;19915;-86
2022/03/13 04:29:16;;;;;;;;;;;-3276.10;73.80;;;;;;5093200;28;20045;-86
2022/03/13 04:31:43;;;;;;;;;;;-3276.30;72.40;;;;;;5093665;28;19909;-86
2022/03/13 04:34:08;;;;;;;;;;;-3276.30;72.10;;;;;;5093570;28;19908;-86
2022/03/13 04:36:37;;;;;;;;;;;-3276.20;72.40;;;;;;5093579;28;19908;-86
2022/03/13 04:39:06;;;;;;;;;;;-3276.20;72.60;;;;;;5092170;28;19919;-86
2022/03/13 04:41:32;;;;;;;;;;;-3276.20;72.70;;;;;;5093502;28;19935;-86
2022/03/13 04:43:58;;;;;;;;;;;-3276.30;73.00;;;;;;5093421;28;20369;-87
2022/03/13 04:46:24;;;;;;;;;;;-3276.20;73.40;;;;;;5093454;28;19914;-86
2022/03/13 04:48:50;;;;;;;;;;;-3276.10;73.80;;;;;;5092116;28;20358;-87
2022/03/13 04:51:15;;;;;;;;;;;-3276.00;74.00;;;;;;5093414;28;19912;-86
2022/03/13 04:53:41;;;;;;;;;;;-3275.90;74.60;;;;;;5093299;28;19912;-87
2022/03/13 04:56:07;;;;;;;;;;;-3275.90;75.40;;;;;;5093337;28;20320;-86
2022/03/13 04:58:33;;;;;;;;;;;-3275.90;75.90;;;;;;5078862;22;19925;-86
2022/03/13 05:00:59;;;;;;;;;;;-3275.80;75.80;;;;;;5052983;28;19916;-86
2022/03/13 05:03:26;;;;;;;;;;;-3275.80;76.10;;;;;;5053006;28;19912;-86
2022/03/13 05:05:53;;;;;;;;;;;-3275.90;75.80;;;;;;5053029;28;20367;-86
2022/03/13 05:08:18;;;;;;;;;;;-3275.80;75.10;;;;;;5052868;28;19909;-86
2022/03/13 05:10:45;;;;;;;;;;;-3275.60;74.50;;;;;;5052936;28;19909;-86
2022/03/13 05:13:11;;;;;;;;;;;-3275.60;74.40;;;;;;5052917;28;20355;-86
2022/03/13 05:15:37;;;;;;;;;;;-3275.40;74.30;;;;;;5052901;28;19909;-86
2022/03/13 05:18:03;;;;;;;;;;;-3275.20;74.80;;;;;;5052802;28;19909;-86
2022/03/13 05:20:29;;;;;;;;;;;-3275.00;75.40;;;;;;5053086;28;19908;-86
2022/03/13 05:22:55;;;;;;;;;;;-3274.80;76.20;;;;;;5053089;28;19915;-86
2022/03/13 05:25:23;;;;;;;;;;;-3274.70;76.80;;;;;;5052758;28;19995;-86
2022/03/13 05:27:49;;;;;;;;;;;-3275.00;76.90;;;;;;5052955;28;19945;-86
2022/03/13 05:30:14;;;;;;;;;;;-3275.20;76.20;;;;;;5052847;28;19954;-86
2022/03/13 05:32:40;;;;;;;;;;;-3275.30;75.80;;;;;;5052718;28;19959;-86
2022/03/13 05:35:05;;;;;;;;;;;-3275.40;75.60;;;;;;5052699;28;19917;-86
2022/03/13 05:37:31;;;;;;;;;;;-3275.40;75.40;;;;;;5052670;28;19935;-86
2022/03/13 05:39:56;;;;;;;;;;;-3275.60;75.50;;;;;;5052608;28;19959;-87
2022/03/13 05:42:24;;;;;;;;;;;-3275.60;75.50;;;;;;5056425;28;19909;-86
2022/03/13 05:44:53;;;;;;;;;;;-3275.60;75.40;;;;;;5056563;28;19931;-86
2022/03/13 05:47:18;;;;;;;;;;;-3275.60;75.70;;;;;;5056383;28;19909;-86
2022/03/13 05:49:45;;;;;;;;;;;-3275.70;76.40;;;;;;5056600;28;20320;-86
2022/03/13 05:52:15;;;;;;;;;;;-3275.90;75.50;;;;;;5056295;28;19916;-86
2022/03/13 05:54:44;;;;;;;;;;;-3275.80;74.90;;;;;;5056522;28;19916;-86
2022/03/13 05:57:10;;;;;;;;;;;-3275.90;75.30;;;;;;5056222;28;19916;-86
2022/03/13 05:59:36;;;;;;;;;;;-3275.80;75.20;;;;;;5055976;28;19923;-86
2022/03/13 06:02:04;;;;;;;;;;;-3275.70;75.20;;;;;;5056145;28;20378;-86
2022/03/13 06:04:32;;;;;;;;;;;-3275.70;76.00;;;;;;5056176;28;20495;-86
2022/03/13 06:06:57;;;;;;;;;;;-3275.60;76.30;;;;;;5056079;28;20363;-86
2022/03/13 06:09:23;;;;;;;;;;;-3275.60;76.40;;;;;;5055994;28;19915;-86
2022/03/13 06:11:48;;;;;;;;;;;-3275.40;76.10;;;;;;5038099;28;20286;-86
2022/03/13 06:14:14;;;;;;;;;;;-3275.10;76.90;;;;;;5038007;28;19915;-86
2022/03/13 06:16:39;;;;;;;;;;;-3275.00;77.80;;;;;;5055913;28;19912;-86
2022/03/13 06:19:05;;;;;;;;;;;-3275.10;78.10;;;;;;5055801;28;19913;-86
2022/03/13 06:21:31;;;;;;;;;;;-3275.40;78.00;;;;;;5055845;28;20323;-86
2022/03/13 06:23:56;;;;;;;;;;;-3275.50;77.60;;;;;;5055747;28;19916;-86
2022/03/13 06:26:22;;;;;;;;;;;-3275.60;77.20;;;;;;5055738;28;20314;-86
2022/03/13 06:28:47;;;;;;;;;;;-3275.80;76.00;;;;;;5055726;28;19940;-86
2022/03/13 06:31:13;;;;;;;;;;;-3275.80;75.60;;;;;;5055522;28;20390;-86
2022/03/13 06:33:38;;;;;;;;;;;-3275.70;75.70;;;;;;5055572;28;19913;-86
2022/03/13 06:36:05;;;;;;;;;;;-3275.70;76.10;;;;;;5055491;28;19948;-86
2022/03/13 06:38:30;;;;;;;;;;;-3275.80;76.40;;;;;;5055418;28;20366;-86
2022/03/13 06:40:56;;;;;;;;;;;-3276.10;76.30;;;;;;5055430;28;20003;-87
2022/03/13 06:43:22;;;;;;;;;;;-3276.30;75.70;;;;;;5055430;28;19909;-86
2022/03/13 06:45:48;;;;;;;;;;;-3276.40;75.90;;;;;;5055397;28;19909;-86
2022/03/13 06:48:15;;;;;;;;;;;-3276.40;77.00;;;;;;5055299;28;19909;-86
2022/03/13 06:50:41;;;;;;;;;;;-3276.50;77.70;;;;;;5055241;28;19909;-86
2022/03/13 06:53:07;;;;;;;;;;;-3276.70;77.80;;;;;;5054817;28;20272;-86
2022/03/13 06:55:32;;;;;;;;;;;-3276.70;77.60;;;;;;5055188;28;19948;-86
2022/03/13 06:57:58;;;;;;;;;;;0.00;78.00;;;;;;5037011;28;20428;-86
2022/03/13 07:00:23;;;;;;;;;;;0.00;78.20;;;;;;5055047;28;19923;-86
2022/03/13 07:02:49;;;;;;;;;;;0.10;78.60;;;;;;5055024;28;19995;-86
2022/03/13 07:05:15;;;;;;;;;;;0.20;79.00;;;;;;5055053;28;19909;-86
2022/03/13 07:07:41;;;;;;;;;;;0.30;79.20;;;;;;5054941;28;19955;-86
2022/03/13 07:10:12;;;;;;;;;;;0.40;78.80;;;;;;5054812;28;20440;-86
2022/03/13 07:12:38;;;;;;;;;;;0.40;78.20;;;;;;5054916;28;20404;-86
2022/03/13 07:15:12;;;;;;;;;;;0.50;77.30;;;;;;5054797;28;19996;-86
2022/03/13 07:17:38;;;;;;;;;;;0.60;75.60;;;;;;5054734;28;20381;-86
2022/03/13 07:20:05;;;;;;;;;;;0.70;73.70;;;;;;5054888;28;19913;-86
2022/03/13 07:22:31;;;;;;;;;;;0.70;72.80;;;;;;5054681;28;19915;-86
2022/03/13 07:24:57;;;;;;;;;;;0.80;72.30;;;;;;5054579;28;19909;-86
2022/03/13 07:27:22;;;;;;;;;;;0.90;71.40;;;;;;5054594;28;19924;-86
2022/03/13 07:29:50;;;;;;;;;;;1.00;71.60;;;;;;5054457;28;20286;-87
2022/03/13 07:32:15;;;;;;;;;;;1.10;71.10;;;;;;5054488;28;19996;-86
2022/03/13 07:34:41;;;;;;;;;;;1.20;70.50;;;;;;5054373;28;19944;-87
2022/03/13 07:37:10;;;;;;;;;;;1.30;68.30;;;;;;5054621;28;19909;-86
2022/03/13 07:39:36;;;;;;;;;;;1.40;66.90;;;;;;5054224;28;20370;-86
2022/03/13 07:42:02;;;;;;;;;;;1.50;65.60;;;;;;5054232;28;19916;-87
2022/03/13 07:44:27;;;;;;;;;;;1.60;65.40;;;;;;5054139;28;19913;-87
2022/03/13 07:46:54;;;;;;;;;;;1.70;63.40;;;;;;5054449;28;19962;-86
2022/03/13 07:49:19;;;;;;;;;;;1.70;63.50;;;;;;5054122;28;20270;-86
2022/03/13 07:51:45;;;;;;;;;;;1.80;63.40;;;;;;5054125;28;19909;-86
2022/03/13 07:54:11;;;;;;;;;;;1.90;63.40;;;;;;5054045;28;19909;-87
2022/03/13 07:56:37;;;;;;;;;;;2.00;63.30;;;;;;5053997;28;19913;-87
2022/03/13 07:59:02;;;;;;;;;;;2.10;63.20;;;;;;5053705;28;19920;-87
2022/03/13 08:01:28;;;;;;;;;;;2.20;63.00;;;;;;5053878;28;19909;-86
2022/03/13 08:03:53;;;;;;;;;;;2.30;63.10;;;;;;5053132;28;20283;-87
2022/03/13 08:06:19;;;;;;;;;;;2.50;62.20;;;;;;5053793;28;19909;-87
2022/03/13 08:08:45;;;;;;;;;;;2.60;61.50;;;;;;5053697;28;20274;-87
2022/03/13 08:11:10;;;;;;;;;;;2.70;60.80;;;;;;5053725;28;19909;-87
2022/03/13 08:13:36;;;;;;;;;;;2.90;59.80;;;;;;5053718;28;19940;-87
2022/03/13 08:16:01;;;;;;;;;;;3.00;59.80;;;;;;5053663;28;19943;-87
2022/03/13 08:18:28;;;;;;;;;;;3.10;59.00;;;;;;5053510;28;19913;-87
2022/03/13 08:20:53;;;;;;;;;;;3.20;57.20;;;;;;5052480;28;19913;-87
2022/03/13 08:23:19;;;;;;;;;;;3.30;57.10;;;;;;5052260;28;19934;-87
2022/03/13 08:25:45;;;;;;;;;;;3.40;57.80;;;;;;5051634;28;19917;-87
2022/03/13 08:28:10;;;;;;;;;;;3.50;58.60;;;;;;5053157;28;19919;-87
2022/03/13 08:30:36;;;;;;;;;;;3.60;57.90;;;;;;5052925;28;20374;-87
2022/03/13 08:33:02;;;;;;;;;;;3.70;56.80;;;;;;5052976;28;20363;-87
2022/03/13 08:35:29;;;;;;;;;;;3.80;55.70;;;;;;5053229;28;19915;-87
2022/03/13 08:37:55;;;;;;;;;;;3.90;55.40;;;;;;5053283;28;19908;-87
2022/03/13 08:40:21;;;;;;;;;;;4.00;55.80;;;;;;5053231;28;19962;-87
2022/03/13 08:42:46;;;;;;;;;;;4.10;56.30;;;;;;5053211;28;20015;-87
2022/03/13 08:45:12;;;;;;;;;;;4.30;53.20;;;;;;5053185;28;19995;-87
2022/03/13 08:47:38;;;;;;;;;;;4.40;51.90;;;;;;5053153;28;19964;-87
2022/03/13 08:50:05;;;;;;;;;;;4.50;51.70;;;;;;5053135;28;19908;-87
2022/03/13 08:52:31;;;;;;;;;;;4.60;51.10;;;;;;5053078;28;19913;-87
2022/03/13 08:54:56;;;;;;;;;;;4.80;49.80;;;;;;5053076;28;19912;-87
2022/03/13 08:57:22;;;;;;;;;;;4.90;51.50;;;;;;5052788;28;19963;-87
2022/03/13 08:59:47;;;;;;;;;;;5.10;49.90;;;;;;5052754;28;20348;-87
2022/03/13 09:02:13;;;;;;;;;;;5.30;48.50;;;;;;5052991;28;20434;-87
2022/03/13 09:04:41;;;;;;;;;;;5.40;48.80;;;;;;5052962;28;19913;-87
2022/03/13 09:07:07;;;;;;;;;;;5.40;47.30;;;;;;5052931;28;19913;-87
2022/03/13 09:09:32;;;;;;;;;;;5.50;46.30;;;;;;5051987;28;19913;-87
2022/03/13 09:11:59;;;;;;;;;;;5.60;45.80;;;;;;5053602;28;19913;-87
2022/03/13 09:14:26;;;;;;;;;;;5.70;46.40;;;;;;5066784;28;20402;-87
2022/03/13 09:16:52;;;;;;;;;;;5.90;46.00;;;;;;5056352;28;19913;-87
2022/03/13 09:19:18;;;;;;;;;;;5.90;45.00;;;;;;5056160;28;19917;-87
2022/03/13 09:21:44;;;;;;;;;;;6.10;44.60;;;;;;5056920;28;19909;-87
2022/03/13 09:24:10;;;;;;;;;;;6.20;43.90;;;;;;5056504;28;19955;-87
2022/03/13 09:26:35;;;;;;;;;;;6.30;45.10;;;;;;5055831;28;19981;-87
2022/03/13 09:29:02;;;;;;;;;;;6.40;45.40;;;;;;5038686;28;20022;-87
2022/03/13 09:31:28;;;;;;;;;;;6.50;45.00;;;;;;5056482;28;19927;-87
2022/03/13 09:33:53;;;;;;;;;;;6.60;45.40;;;;;;5063858;28;19912;-87
2022/03/13 09:36:19;;;;;;;;;;;6.70;45.00;;;;;;5055004;28;19952;-87
2022/03/13 09:38:45;;;;;;;;;;;6.80;46.50;;;;;;5056148;28;19924;-87
2022/03/13 09:41:11;;;;;;;;;;;6.90;47.60;;;;;;5055991;28;19924;-87
2022/03/13 09:43:36;;;;;;;;;;;7.00;47.10;;;;;;5055868;28;19924;-87
2022/03/13 09:46:02;;;;;;;;;;;7.00;45.80;;;;;;5055822;28;19916;-87
2022/03/13 09:48:28;;;;;;;;;;;7.10;45.30;;;;;;5056221;28;19913;-87
2022/03/13 09:50:54;;;;;;;;;;;7.10;44.90;;;;;;5059941;28;19908;-87
2022/03/13 09:53:20;;;;;;;;;;;7.20;44.10;;;;;;5056170;28;20302;-88
2022/03/13 09:55:46;;;;;;;;;;;7.30;44.10;;;;;;5054948;28;20180;-87
2022/03/13 09:58:12;;;;;;;;;;;7.30;43.80;;;;;;5055922;28;20019;-87
2022/03/13 10:00:37;;;;;;;;;;;7.40;42.40;;;;;;5055781;28;19960;-87
2022/03/13 10:03:08;;;;;;;;;;;7.50;42.20;;;;;;5056317;28;19916;-87
2022/03/13 10:05:41;;;;;;;;;;;7.60;43.20;;;;;;5056091;28;20263;-87
2022/03/13 10:08:06;;;;;;;;;;;7.70;43.20;;;;;;5037657;28;20337;-87
2022/03/13 10:10:40;;;;;;;;;;;7.90;37.70;;;;;;5054970;28;19961;-87
2022/03/13 10:13:05;;;;;;;;;;;7.90;37.30;;;;;;5055488;28;19909;-87
2022/03/13 10:15:46;;;;;;;;;;;8.10;37.60;;;;;;5055682;28;20454;-87
2022/03/13 10:18:12;;;;;;;;;;;8.20;32.90;;;;;;5055799;28;19909;-87
2022/03/13 10:20:41;;;;;;;;;;;8.20;33.10;;;;;;5055112;28;19913;-87
2022/03/13 10:23:10;;;;;;;;;;;8.20;32.80;;;;;;5061171;28;19917;-87
2022/03/13 10:25:39;;;;;;;;;;;8.40;35.70;;;;;;5059685;28;19913;-87
2022/03/13 10:28:14;;;;;;;;;;;8.40;34.10;;;;;;5054467;28;19917;-87
2022/03/13 10:30:40;;;;;;;;;;;8.50;36.60;;;;;;5054973;28;19920;-87
2022/03/13 10:33:08;;;;;;;;;;;8.60;36.30;;;;;;5054144;28;19913;-87
2022/03/13 10:35:37;;;;;;;;;;;8.70;35.10;;;;;;5055339;28;19909;-87
2022/03/13 10:38:14;;;;;;;;;;;8.70;34.90;;;;;;5055560;28;19908;-87
2022/03/13 10:40:40;;;;;;;;;;;8.80;35.60;;;;;;5055425;28;19912;-87
2022/03/13 10:43:08;;;;;;;;;;;8.70;36.40;;;;;;5055446;28;19909;-87
2022/03/13 10:45:38;;;;;;;;;;;8.70;35.20;;;;;;5055365;28;19952;-87
2022/03/13 10:48:16;;;;;;;;;;;8.80;35.00;;;;;;5055356;28;19991;-87
2022/03/13 10:50:45;;;;;;;;;;;8.90;36.00;;;;;;5055290;28;19908;-87
2022/03/13 10:53:12;;;;;;;;;;;8.90;36.10;;;;;;5055234;28;20263;-87
2022/03/13 10:55:38;;;;;;;;;;;9.00;36.10;;;;;;5055211;28;19909;-87
2022/03/13 10:58:04;;;;;;;;;;;9.10;37.60;;;;;;5054923;28;19925;-87
2022/03/13 11:00:29;;;;;;;;;;;9.30;35.00;;;;;;5054995;28;19917;-87
2022/03/13 11:03:14;;;;;;;;;;;9.20;34.30;;;;;;5055014;28;20004;-87
2022/03/13 11:05:40;;;;;;;;;;;9.10;34.10;;;;;;5055007;28;20011;-87
2022/03/13 11:08:09;;;;;;;;;;;9.30;33.90;;;;;;5054875;28;19916;-87
2022/03/13 11:10:37;;;;;;;;;;;9.40;32.80;;;;;;5054794;28;19909;-87
2022/03/13 11:13:06;;;;;;;;;;;9.60;33.40;;;;;;5054869;28;20363;-88
2022/03/13 11:15:35;;;;;;;;;;;9.80;32.70;;;;;;5054733;28;19916;-87
2022/03/13 11:18:01;;;;;;;;;;;9.90;32.40;;;;;;5055066;28;19955;-87
2022/03/13 11:20:29;;;;;;;;;;;10.00;35.00;;;;;;5054645;28;19924;-87
2022/03/13 11:22:54;;;;;;;;;;;10.00;35.10;;;;;;5054742;28;19909;-87
2022/03/13 11:25:21;;;;;;;;;;;10.00;34.90;;;;;;5054603;28;19916;-87
2022/03/13 11:27:47;;;;;;;;;;;10.10;34.70;;;;;;5054618;28;19915;-87
2022/03/13 11:30:13;;;;;;;;;;;10.40;33.40;;;;;;5054474;28;19940;-87
2022/03/13 11:32:44;;;;;;;;;;;10.70;33.20;;;;;;5054475;28;19957;-87
2022/03/13 11:35:15;;;;;;;;;;;10.90;35.20;;;;;;5054455;28;19909;-87
2022/03/13 11:38:10;;;;;;;;;;;10.90;35.60;;;;;;5053956;28;19916;-87
2022/03/13 11:40:39;;;;;;;;;;;10.90;32.40;;;;;;5040912;28;19913;-87
2022/03/13 11:43:04;;;;;;;;;;;10.80;34.30;;;;;;5054297;28;19978;-87
2022/03/13 11:45:34;;;;;;;;;;;11.20;35.00;;;;;;5054268;28;20371;-88
2022/03/13 11:48:05;;;;;;;;;;;11.60;34.70;;;;;;5054253;28;19909;-87
2022/03/13 11:50:50;;;;;;;;;;;11.70;32.50;;;;;;5054132;28;19932;-87
2022/03/13 11:53:20;;;;;;;;;;;11.90;30.80;;;;;;5054112;28;19955;-87
2022/03/13 11:55:57;;;;;;;;;;;12.30;32.70;;;;;;5054084;28;20363;-87
2022/03/13 11:58:43;;;;;;;;;;;12.00;31.30;;;;;;5053752;28;19956;-87
2022/03/13 12:01:10;;;;;;;;;;;11.60;32.00;;;;;;5053393;28;19930;-87
2022/03/13 12:03:36;;;;;;;;;;;11.40;32.30;;;;;;5053873;28;20317;-87
2022/03/13 12:06:02;;;;;;;;;;;11.60;32.60;;;;;;5035982;28;19909;-87
2022/03/13 12:08:46;;;;;;;;;;;11.60;32.50;;;;;;5053778;28;20366;-87
2022/03/13 12:11:34;;;;;;;;;;;11.70;31.10;;;;;;5053722;28;19909;-87
2022/03/13 12:14:00;;;;;;;;;;;12.00;31.10;;;;;;5053973;28;19923;-88
2022/03/13 12:16:25;;;;;;;;;;;12.60;31.30;;;;;;5053710;28;20011;-87
2022/03/13 12:18:58;;;;;;;;;;;12.70;31.90;;;;;;5053845;28;19917;-87
2022/03/13 12:21:24;;;;;;;;;;;12.40;31.00;;;;;;5053615;28;19909;-88
2022/03/13 12:23:49;;;;;;;;;;;12.40;32.30;;;;;;5053573;28;20004;-87
2022/03/13 12:26:18;;;;;;;;;;;12.30;31.20;;;;;;5053513;28;19991;-87
2022/03/13 12:28:44;;;;;;;;;;;12.40;31.60;;;;;;5053485;28;19908;-88
2022/03/13 12:31:09;;;;;;;;;;;13.30;31.10;;;;;;5053316;28;19916;-88
2022/03/13 12:33:42;;;;;;;;;;;14.50;29.20;;;;;;5053969;28;19954;-88
2022/03/13 12:36:08;;;;;;;;;;;15.30;27.10;;;;;;5053347;28;19992;-88
2022/03/13 12:38:33;;;;;;;;;;;15.10;25.80;;;;;;5053247;28;20485;-87
2022/03/13 12:41:01;;;;;;;;;;;15.20;25.20;;;;;;5053340;28;20386;-88
2022/03/13 12:43:50;;;;;;;;;;;16.00;23.80;;;;;;5053262;28;20275;-88
2022/03/13 12:46:17;;;;;;;;;;;17.10;23.80;;;;;;5045418;28;19951;-88
2022/03/13 12:48:54;;;;;;;;;;;16.90;23.10;;;;;;5053421;28;19958;-88
2022/03/13 12:51:44;;;;;;;;;;;17.60;22.70;;;;;;5052887;28;19935;-87
2022/03/13 12:54:14;;;;;;;;;;;18.30;22.70;;;;;;5053149;28;19909;-88
2022/03/13 12:56:47;;;;;;;;;;;19.10;20.80;;;;;;5053094;28;19935;-88
2022/03/13 12:59:25;;;;;;;;;;;20.30;18.70;;;;;;5076147;22;19967;-88
2022/03/13 13:02:14;;;;;;;;;;;21.50;18.70;;;;;;5072669;28;20406;-88
2022/03/13 13:04:41;;;;;;;;;;;21.60;19.20;;;;;;5073062;28;20344;-88
2022/03/13 13:07:11;;;;;;;;;;;22.30;18.80;;;;;;5073268;28;19995;-88
2022/03/13 13:09:41;;;;;;;;;;;22.80;17.20;;;;;;5073173;28;19909;-88
2022/03/13 13:12:08;;;;;;;;;;;22.30;17.50;;;;;;5072995;28;19912;-88
2022/03/13 13:14:35;;;;;;;;;;;22.60;17.90;;;;;;5072999;28;20120;-88
2022/03/13 13:17:04;;;;;;;;;;;23.00;19.10;;;;;;5072877;28;19909;-88
2022/03/13 13:19:35;;;;;;;;;;;23.70;17.30;;;;;;5072860;28;19920;-88
2022/03/13 13:22:01;;;;;;;;;;;23.20;17.30;;;;;;5073188;28;19909;-88
2022/03/13 13:24:36;;;;;;;;;;;21.40;18.00;;;;;;5072784;28;20550;-88
2022/03/13 13:27:02;;;;;;;;;;;20.80;18.10;;;;;;5072859;28;19955;-87
2022/03/13 13:29:35;;;;;;;;;;;19.40;20.70;;;;;;5072741;28;20338;-87
2022/03/13 13:32:19;;;;;;;;;;;19.20;20.70;;;;;;5072746;28;20374;-88
2022/03/13 13:35:03;;;;;;;;;;;18.40;21.10;;;;;;5072754;28;20026;-87
2022/03/13 13:37:29;;;;;;;;;;;18.30;20.70;;;;;;5072750;28;19930;-87
2022/03/13 13:40:05;;;;;;;;;;;19.60;20.00;;;;;;5072645;28;19913;-88
2022/03/13 13:42:32;;;;;;;;;;;20.30;19.30;;;;;;5072593;28;19932;-88
2022/03/13 13:45:00;;;;;;;;;;;19.90;20.50;;;;;;5072687;28;19959;-88
2022/03/13 13:47:26;;;;;;;;;;;20.40;20.20;;;;;;5072644;28;19916;-88
2022/03/13 13:49:51;;;;;;;;;;;20.70;18.10;;;;;;5072593;28;19908;-88
2022/03/13 13:52:17;;;;;;;;;;;21.20;18.50;;;;;;5072548;28;19948;-88
2022/03/13 13:54:43;;;;;;;;;;;21.70;18.20;;;;;;5072804;28;19999;-88
2022/03/13 13:57:17;;;;;;;;;;;20.90;19.20;;;;;;5072523;28;19908;-88
2022/03/13 13:59:42;;;;;;;;;;;21.60;19.00;;;;;;5072290;28;20382;-88
2022/03/13 14:02:11;;;;;;;;;;;22.30;18.70;;;;;;5073872;28;19919;-88
2022/03/13 14:04:40;;;;;;;;;;;22.00;17.90;;;;;;5076155;28;19967;-88
2022/03/13 14:07:06;;;;;;;;;;;21.60;17.90;;;;;;5076124;28;19971;-88
2022/03/13 14:09:32;;;;;;;;;;;21.80;17.60;;;;;;5076015;28;20166;-88
2022/03/13 14:11:58;;;;;;;;;;;22.80;18.70;;;;;;5075998;28;20057;-88